createdAt,value
2018-05-16T00:00:07.569Z,10.00
2018-05-16T00:00:38.796Z,9.68
2018-05-16T00:01:10.075Z,10.80
2018-05-16T00:01:41.279Z,10.23
2018-05-16T00:02:12.503Z,10.85
2018-05-16T00:02:43.747Z,11.32
2018-05-16T00:03:14.965Z,10.52
2018-05-16T00:03:46.176Z,9.18
2018-05-16T00:04:17.392Z,8.75
2018-05-16T00:04:48.623Z,8.85
2018-05-16T00:05:19.833Z,8.90
2018-05-16T00:05:51.058Z,9.38
2018-05-16T00:06:22.285Z,9.10
2018-05-16T00:06:53.499Z,7.62
2018-05-16T00:07:24.751Z,9.00
2018-05-16T00:07:55.985Z,8.35
2018-05-16T00:08:27.212Z,9.27
2018-05-16T00:08:58.425Z,8.68
2018-05-16T00:09:29.644Z,8.23
2018-05-16T00:10:00.857Z,8.25
2018-05-16T00:10:32.079Z,8.10
2018-05-16T00:11:03.340Z,8.57
2018-05-16T00:11:34.558Z,7.97
2018-05-16T00:12:05.774Z,8.75
2018-05-16T00:12:36.980Z,7.62
2018-05-16T00:13:08.215Z,8.70
2018-05-16T00:13:39.445Z,8.40
2018-05-16T00:14:10.702Z,8.52
2018-05-16T00:14:41.917Z,8.88
2018-05-16T00:15:13.172Z,8.80
2018-05-16T00:15:44.389Z,9.00
2018-05-16T00:16:15.612Z,8.63
2018-05-16T00:16:46.861Z,8.95
2018-05-16T00:17:18.072Z,7.70
2018-05-16T00:17:49.280Z,8.48
2018-05-16T00:18:20.492Z,7.85
2018-05-16T00:18:51.715Z,7.62
2018-05-16T00:19:22.977Z,8.02
2018-05-16T00:19:54.235Z,8.48
2018-05-16T00:20:25.446Z,8.23
2018-05-16T00:20:56.678Z,8.57
2018-05-16T00:21:27.899Z,8.77
2018-05-16T00:21:59.208Z,8.98
2018-05-16T00:22:30.418Z,8.52
2018-05-16T00:23:01.646Z,8.50
2018-05-16T00:23:32.868Z,9.23
2018-05-16T00:24:04.090Z,8.48
2018-05-16T00:24:35.369Z,8.55
2018-05-16T00:25:06.589Z,8.73
2018-05-16T00:25:37.797Z,8.38
2018-05-16T00:26:09.013Z,8.20
2018-05-16T00:26:40.241Z,7.50
2018-05-16T00:27:11.448Z,7.22
2018-05-16T00:27:42.662Z,7.62
2018-05-16T00:28:13.870Z,7.32
2018-05-16T00:28:45.085Z,7.55
2018-05-16T00:29:16.341Z,7.50
2018-05-16T00:29:47.554Z,7.57
2018-05-16T00:30:18.786Z,6.87
2018-05-16T00:30:49.999Z,7.97
2018-05-16T00:31:21.324Z,7.80
2018-05-16T00:31:52.546Z,7.15
2018-05-16T00:32:23.776Z,6.57
2018-05-16T00:32:55.029Z,6.65
2018-05-16T00:33:26.300Z,6.03
2018-05-16T00:33:57.518Z,6.00
2018-05-16T00:34:28.752Z,6.68
2018-05-16T00:35:00.055Z,6.87
2018-05-16T00:35:31.278Z,7.80
2018-05-16T00:36:02.514Z,7.62
2018-05-16T00:36:33.742Z,8.23
2018-05-16T00:37:04.938Z,8.23
2018-05-16T00:37:36.163Z,7.93
2018-05-16T00:38:07.387Z,7.32
2018-05-16T00:38:38.633Z,7.70
2018-05-16T00:39:09.818Z,8.90
2018-05-16T00:39:41.036Z,8.18
2018-05-16T00:40:12.292Z,7.87
2018-05-16T00:40:43.519Z,7.32
2018-05-16T00:41:14.741Z,7.95
2018-05-16T00:41:45.951Z,8.63
2018-05-16T00:42:17.164Z,8.77
2018-05-16T00:42:48.370Z,9.00
2018-05-16T00:43:19.593Z,8.40
2018-05-16T00:43:50.838Z,8.07
2018-05-16T00:44:22.065Z,7.83
2018-05-16T00:44:53.329Z,9.10
2018-05-16T00:45:24.586Z,8.63
2018-05-16T00:45:55.798Z,8.60
2018-05-16T00:46:27.013Z,8.60
2018-05-16T00:46:58.256Z,9.15
2018-05-16T00:47:29.476Z,9.60
2018-05-16T00:48:00.694Z,9.13
2018-05-16T00:48:31.900Z,8.95
2018-05-16T00:49:03.123Z,8.13
2018-05-16T00:49:34.418Z,8.38
2018-05-16T00:50:05.636Z,7.82
2018-05-16T00:50:36.876Z,8.00
2018-05-16T00:51:08.088Z,7.93
2018-05-16T00:51:39.311Z,7.95
2018-05-16T00:52:10.713Z,7.75
2018-05-16T00:52:41.935Z,7.90
2018-05-16T00:53:13.141Z,8.00
2018-05-16T00:53:44.353Z,8.48
2018-05-16T00:54:15.569Z,7.97
2018-05-16T00:54:46.838Z,8.13
2018-05-16T00:55:18.045Z,8.27
2018-05-16T00:55:49.252Z,7.55
2018-05-16T00:56:20.471Z,7.10
2018-05-16T00:56:51.704Z,7.75
2018-05-16T00:57:22.941Z,8.15
2018-05-16T00:57:54.144Z,7.35
2018-05-16T00:58:25.362Z,7.82
2018-05-16T00:58:56.600Z,8.20
2018-05-16T00:59:27.859Z,7.65
2018-05-16T00:59:59.069Z,8.10
2018-05-16T01:00:30.301Z,7.75
2018-05-16T01:01:01.516Z,7.82
2018-05-16T01:01:32.733Z,8.13
2018-05-16T01:02:03.960Z,7.65
2018-05-16T01:02:35.177Z,7.57
2018-05-16T01:03:06.403Z,8.43
2018-05-16T01:03:37.666Z,7.47
2018-05-16T01:04:08.876Z,8.02
2018-05-16T01:04:40.439Z,8.10
2018-05-16T01:05:11.664Z,7.82
2018-05-16T01:05:42.876Z,7.70
2018-05-16T01:06:14.090Z,7.62
2018-05-16T01:06:45.297Z,8.27
2018-05-16T01:07:16.515Z,7.93
2018-05-16T01:07:47.751Z,8.13
2018-05-16T01:08:19.009Z,8.52
2018-05-16T01:08:50.225Z,7.75
2018-05-16T01:09:21.447Z,9.25
2018-05-16T01:09:52.661Z,12.23
2018-05-16T01:10:23.876Z,11.18
2018-05-16T01:10:55.101Z,10.20
2018-05-16T01:11:26.344Z,9.23
2018-05-16T01:11:57.570Z,9.05
2018-05-16T01:12:28.775Z,9.10
2018-05-16T01:13:00.025Z,8.60
2018-05-16T01:13:31.240Z,8.65
2018-05-16T01:14:02.525Z,8.20
2018-05-16T01:14:33.754Z,8.70
2018-05-16T01:15:04.973Z,8.23
2018-05-16T01:15:36.209Z,7.93
2018-05-16T01:16:07.429Z,8.57
2018-05-16T01:16:38.656Z,9.02
2018-05-16T01:17:09.851Z,8.68
2018-05-16T01:17:41.077Z,8.43
2018-05-16T01:18:12.301Z,8.85
2018-05-16T01:18:43.566Z,8.73
2018-05-16T01:19:14.797Z,7.72
2018-05-16T01:19:46.017Z,9.23
2018-05-16T01:20:17.267Z,9.27
2018-05-16T01:20:48.525Z,10.70
2018-05-16T01:21:19.773Z,17.30
2018-05-16T01:21:50.981Z,13.57
2018-05-16T01:22:22.445Z,13.82
2018-05-16T01:22:53.676Z,10.73
2018-05-16T01:23:24.894Z,10.68
2018-05-16T01:23:56.156Z,9.18
2018-05-16T01:24:27.373Z,9.15
2018-05-16T01:24:58.632Z,8.80
2018-05-16T01:25:29.841Z,8.23
2018-05-16T01:26:01.044Z,7.55
2018-05-16T01:26:32.261Z,11.23
2018-05-16T01:27:03.487Z,9.60
2018-05-16T01:27:34.791Z,10.52
2018-05-16T01:28:06.052Z,10.27
2018-05-16T01:28:37.261Z,9.15
2018-05-16T01:29:08.513Z,8.10
2018-05-16T01:29:39.727Z,7.97
2018-05-16T01:30:10.937Z,7.95
2018-05-16T01:30:42.162Z,8.48
2018-05-16T01:31:13.360Z,8.55
2018-05-16T01:31:44.581Z,9.02
2018-05-16T01:32:15.811Z,9.18
2018-05-16T01:32:47.022Z,8.50
2018-05-16T01:33:18.225Z,8.63
2018-05-16T01:33:49.430Z,8.80
2018-05-16T01:34:20.685Z,8.57
2018-05-16T01:34:51.901Z,8.10
2018-05-16T01:35:23.131Z,8.70
2018-05-16T01:35:54.371Z,8.70
2018-05-16T01:36:25.597Z,8.52
2018-05-16T01:36:56.808Z,8.50
2018-05-16T01:37:28.028Z,8.40
2018-05-16T01:37:59.241Z,8.57
2018-05-16T01:38:30.453Z,8.93
2018-05-16T01:39:01.675Z,8.60
2018-05-16T01:39:32.946Z,8.23
2018-05-16T01:40:04.265Z,8.70
2018-05-16T01:40:35.453Z,7.90
2018-05-16T01:41:06.679Z,8.70
2018-05-16T01:41:37.889Z,8.32
2018-05-16T01:42:09.104Z,7.78
2018-05-16T01:42:40.353Z,7.70
2018-05-16T01:43:11.564Z,8.65
2018-05-16T01:43:42.778Z,7.78
2018-05-16T01:44:13.999Z,8.57
2018-05-16T01:44:45.270Z,7.80
2018-05-16T01:45:16.515Z,7.93
2018-05-16T01:45:47.732Z,8.20
2018-05-16T01:46:18.963Z,8.27
2018-05-16T01:46:50.184Z,8.68
2018-05-16T01:47:21.408Z,8.20
2018-05-16T01:47:52.677Z,8.30
2018-05-16T01:48:23.889Z,7.82
2018-05-16T01:48:55.096Z,8.38
2018-05-16T01:49:26.326Z,8.75
2018-05-16T01:49:57.535Z,8.15
2018-05-16T01:50:28.745Z,8.63
2018-05-16T01:50:59.969Z,9.32
2018-05-16T01:51:31.190Z,9.10
2018-05-16T01:52:02.421Z,8.45
2018-05-16T01:52:33.646Z,8.70
2018-05-16T01:53:04.866Z,7.97
2018-05-16T01:53:36.123Z,8.45
2018-05-16T01:54:07.379Z,9.13
2018-05-16T01:54:38.595Z,8.70
2018-05-16T01:55:09.836Z,8.18
2018-05-16T01:55:41.059Z,8.07
2018-05-16T01:56:12.298Z,8.32
2018-05-16T01:56:43.527Z,8.18
2018-05-16T01:57:14.797Z,8.25
2018-05-16T01:57:47.174Z,7.82
2018-05-16T01:58:18.389Z,8.73
2018-05-16T01:58:49.594Z,8.55
2018-05-16T01:59:20.818Z,8.93
2018-05-16T01:59:52.046Z,9.07
2018-05-16T02:00:23.277Z,9.13
2018-05-16T02:00:54.484Z,9.18
2018-05-16T02:01:25.696Z,9.48
2018-05-16T02:01:56.921Z,8.70
2018-05-16T02:02:28.164Z,8.55
2018-05-16T02:02:59.380Z,8.77
2018-05-16T02:03:30.613Z,8.38
2018-05-16T02:04:01.835Z,9.32
2018-05-16T02:04:33.046Z,8.77
2018-05-16T02:05:04.267Z,8.57
2018-05-16T02:05:35.486Z,8.50
2018-05-16T02:06:06.715Z,8.77
2018-05-16T02:06:38.000Z,8.48
2018-05-16T02:07:09.206Z,8.80
2018-05-16T02:07:40.454Z,8.48
2018-05-16T02:08:11.697Z,9.05
2018-05-16T02:08:42.900Z,8.20
2018-05-16T02:09:14.117Z,8.88
2018-05-16T02:09:45.336Z,9.20
2018-05-16T02:10:16.546Z,9.02
2018-05-16T02:10:47.753Z,8.82
2018-05-16T02:11:19.017Z,8.48
2018-05-16T02:11:50.221Z,8.48
2018-05-16T02:12:21.421Z,8.05
2018-05-16T02:12:52.614Z,8.00
2018-05-16T02:13:23.825Z,8.27
2018-05-16T02:13:55.029Z,8.18
2018-05-16T02:14:26.255Z,8.50
2018-05-16T02:14:57.469Z,8.88
2018-05-16T02:15:28.689Z,9.00
2018-05-16T02:15:59.925Z,8.80
2018-05-16T02:16:31.183Z,8.98
2018-05-16T02:17:02.390Z,8.35
2018-05-16T02:17:33.608Z,8.95
2018-05-16T02:18:04.798Z,8.68
2018-05-16T02:18:36.019Z,8.13
2018-05-16T02:19:07.229Z,8.45
2018-05-16T02:19:38.457Z,8.27
2018-05-16T02:20:09.673Z,8.65
2018-05-16T02:20:40.897Z,8.30
2018-05-16T02:21:12.113Z,8.40
2018-05-16T02:21:43.360Z,8.55
2018-05-16T02:22:14.587Z,8.13
2018-05-16T02:22:45.836Z,8.10
2018-05-16T02:23:17.057Z,8.05
2018-05-16T02:23:48.275Z,7.80
2018-05-16T02:24:19.488Z,7.68
2018-05-16T02:24:50.699Z,8.13
2018-05-16T02:25:21.945Z,7.90
2018-05-16T02:25:53.232Z,8.00
2018-05-16T02:26:24.439Z,8.50
2018-05-16T02:26:55.657Z,8.85
2018-05-16T02:27:26.869Z,8.85
2018-05-16T02:27:58.054Z,9.13
2018-05-16T02:28:29.261Z,9.13
2018-05-16T02:29:00.487Z,9.60
2018-05-16T02:29:31.696Z,8.73
2018-05-16T02:30:02.909Z,9.52
2018-05-16T02:30:34.142Z,8.13
2018-05-16T02:31:05.398Z,8.80
2018-05-16T02:31:36.662Z,9.02
2018-05-16T02:32:07.884Z,8.70
2018-05-16T02:32:39.128Z,8.93
2018-05-16T02:33:10.364Z,8.50
2018-05-16T02:33:41.574Z,8.50
2018-05-16T02:34:12.810Z,8.98
2018-05-16T02:34:44.022Z,8.85
2018-05-16T02:35:15.243Z,9.05
2018-05-16T02:35:46.472Z,9.02
2018-05-16T02:36:17.737Z,8.32
2018-05-16T02:36:48.949Z,9.10
2018-05-16T02:37:20.241Z,9.02
2018-05-16T02:37:51.422Z,9.30
2018-05-16T02:38:22.632Z,8.80
2018-05-16T02:38:53.844Z,8.77
2018-05-16T02:39:25.045Z,9.18
2018-05-16T02:39:56.269Z,8.57
2018-05-16T02:40:27.486Z,8.15
2018-05-16T02:41:36.190Z,8.60
2018-05-16T02:42:07.501Z,9.15
2018-05-16T02:42:38.769Z,8.75
2018-05-16T02:43:09.981Z,9.32
2018-05-16T02:43:41.205Z,8.02
2018-05-16T02:44:12.436Z,8.07
2018-05-16T02:44:43.649Z,8.23
2018-05-16T02:45:14.854Z,8.40
2018-05-16T02:45:46.073Z,8.63
2018-05-16T02:46:17.304Z,9.00
2018-05-16T02:46:48.521Z,8.90
2018-05-16T02:47:19.791Z,8.98
2018-05-16T02:47:51.010Z,8.65
2018-05-16T02:48:22.229Z,8.85
2018-05-16T02:48:53.423Z,9.30
2018-05-16T02:49:24.629Z,10.10
2018-05-16T02:49:55.847Z,9.07
2018-05-16T02:50:27.073Z,9.73
2018-05-16T02:50:58.290Z,10.13
2018-05-16T02:51:29.505Z,9.55
2018-05-16T02:52:00.721Z,9.95
2018-05-16T02:52:31.946Z,9.88
2018-05-16T02:53:03.191Z,10.02
2018-05-16T02:53:34.423Z,9.82
2018-05-16T02:54:05.649Z,9.57
2018-05-16T02:54:36.915Z,9.00
2018-05-16T02:55:08.151Z,10.20
2018-05-16T02:55:39.404Z,9.75
2018-05-16T02:56:10.631Z,9.70
2018-05-16T02:56:41.862Z,10.35
2018-05-16T02:57:13.077Z,9.88
2018-05-16T02:57:44.290Z,9.93
2018-05-16T02:58:15.516Z,9.93
2018-05-16T02:58:46.728Z,9.43
2018-05-16T02:59:17.937Z,9.88
2018-05-16T02:59:49.222Z,9.60
2018-05-16T03:00:20.438Z,9.88
2018-05-16T03:00:51.659Z,10.05
2018-05-16T03:01:22.876Z,10.13
2018-05-16T03:01:54.085Z,9.95
2018-05-16T03:02:25.293Z,10.35
2018-05-16T03:02:56.547Z,10.57
2018-05-16T03:03:27.763Z,10.85
2018-05-16T03:03:58.975Z,10.38
2018-05-16T03:04:30.167Z,10.82
2018-05-16T03:05:01.423Z,9.93
2018-05-16T03:05:32.638Z,9.95
2018-05-16T03:06:03.865Z,10.38
2018-05-16T03:06:35.073Z,10.15
2018-05-16T03:07:06.290Z,9.98
2018-05-16T03:07:37.501Z,9.98
2018-05-16T03:08:08.744Z,10.48
2018-05-16T03:08:39.965Z,10.50
2018-05-16T03:09:11.178Z,10.18
2018-05-16T03:09:42.397Z,10.27
2018-05-16T03:10:13.652Z,10.15
2018-05-16T03:10:44.870Z,9.75
2018-05-16T03:11:16.086Z,10.30
2018-05-16T03:11:47.294Z,9.50
2018-05-16T03:12:18.518Z,10.30
2018-05-16T03:12:49.766Z,10.07
2018-05-16T03:13:20.987Z,10.77
2018-05-16T03:13:52.212Z,11.20
2018-05-16T03:14:23.434Z,10.02
2018-05-16T03:14:54.650Z,10.93
2018-05-16T03:15:25.960Z,10.88
2018-05-16T03:15:57.313Z,10.20
2018-05-16T03:16:28.486Z,10.40
2018-05-16T03:16:59.701Z,9.95
2018-05-16T03:17:30.938Z,10.35
2018-05-16T03:18:02.160Z,10.00
2018-05-16T03:18:33.371Z,9.35
2018-05-16T03:19:04.590Z,9.90
2018-05-16T03:19:35.804Z,9.80
2018-05-16T03:20:07.013Z,9.60
2018-05-16T03:20:38.270Z,9.40
2018-05-16T03:21:09.479Z,10.15
2018-05-16T03:21:40.690Z,9.45
2018-05-16T03:22:11.914Z,9.68
2018-05-16T03:22:43.136Z,10.30
2018-05-16T03:23:14.392Z,10.35
2018-05-16T03:23:45.597Z,9.57
2018-05-16T03:24:16.809Z,10.32
2018-05-16T03:24:48.022Z,10.35
2018-05-16T03:25:19.255Z,10.55
2018-05-16T03:25:50.470Z,10.27
2018-05-16T03:26:21.682Z,10.35
2018-05-16T03:26:52.895Z,10.38
2018-05-16T03:27:24.269Z,10.70
2018-05-16T03:27:55.521Z,11.63
2018-05-16T03:28:26.728Z,11.60
2018-05-16T03:28:57.942Z,11.35
2018-05-16T03:29:29.145Z,12.40
2018-05-16T03:30:00.357Z,11.65
2018-05-16T03:30:31.581Z,10.82
2018-05-16T03:31:02.800Z,10.98
2018-05-16T03:31:34.014Z,11.18
2018-05-16T03:32:05.217Z,9.95
2018-05-16T03:32:36.447Z,11.55
2018-05-16T03:33:07.726Z,8.95
2018-05-16T03:33:38.945Z,9.70
2018-05-16T03:34:10.151Z,9.18
2018-05-16T03:34:41.373Z,10.50
2018-05-16T03:35:12.589Z,9.32
2018-05-16T03:35:43.805Z,9.38
2018-05-16T03:36:15.045Z,9.40
2018-05-16T03:36:46.286Z,10.05
2018-05-16T03:37:17.525Z,10.10
2018-05-16T03:37:48.728Z,9.85
2018-05-16T03:38:19.944Z,10.02
2018-05-16T03:38:51.149Z,10.15
2018-05-16T03:39:22.361Z,10.05
2018-05-16T03:39:53.570Z,10.93
2018-05-16T03:40:24.790Z,9.88
2018-05-16T03:40:56.623Z,9.45
2018-05-16T03:41:27.882Z,9.25
2018-05-16T03:41:59.089Z,8.88
2018-05-16T03:42:30.297Z,9.25
2018-05-16T03:43:01.517Z,9.75
2018-05-16T03:43:32.725Z,9.43
2018-05-16T03:44:03.941Z,9.38
2018-05-16T03:44:35.143Z,9.73
2018-05-16T03:45:06.384Z,9.63
2018-05-16T03:45:38.145Z,9.30
2018-05-16T03:46:09.353Z,9.13
2018-05-16T03:46:40.570Z,10.25
2018-05-16T03:47:11.950Z,10.52
2018-05-16T03:47:43.157Z,9.30
2018-05-16T03:48:14.386Z,9.45
2018-05-16T03:48:45.598Z,9.00
2018-05-16T03:49:16.823Z,9.10
2018-05-16T03:49:48.079Z,8.98
2018-05-16T03:50:19.287Z,9.40
2018-05-16T03:50:50.537Z,8.45
2018-05-16T03:51:21.749Z,7.82
2018-05-16T03:51:53.027Z,8.75
2018-05-16T03:52:24.177Z,8.80
2018-05-16T03:52:55.378Z,8.57
2018-05-16T03:53:26.588Z,9.18
2018-05-16T03:53:57.786Z,9.27
2018-05-16T03:54:28.998Z,9.32
2018-05-16T03:55:00.262Z,9.48
2018-05-16T03:55:31.500Z,8.82
2018-05-16T03:56:02.721Z,8.90
2018-05-16T03:56:33.939Z,8.50
2018-05-16T03:57:05.154Z,9.55
2018-05-16T03:57:36.373Z,8.95
2018-05-16T03:58:07.577Z,8.57
2018-05-16T03:58:38.784Z,9.48
2018-05-16T03:59:09.994Z,9.65
2018-05-16T03:59:41.201Z,9.23
2018-05-16T04:00:12.452Z,8.68
2018-05-16T04:00:43.722Z,8.85
2018-05-16T04:01:14.921Z,8.25
2018-05-16T04:01:46.136Z,7.93
2018-05-16T04:02:17.358Z,9.48
2018-05-16T04:02:48.569Z,8.73
2018-05-16T04:03:19.797Z,8.05
2018-05-16T04:03:51.006Z,8.23
2018-05-16T04:04:22.213Z,8.50
2018-05-16T04:04:53.416Z,8.60
2018-05-16T04:05:24.628Z,8.45
2018-05-16T04:05:55.887Z,8.98
2018-05-16T04:06:27.104Z,8.57
2018-05-16T04:06:58.317Z,7.97
2018-05-16T04:07:29.533Z,8.02
2018-05-16T04:08:00.740Z,8.50
2018-05-16T04:08:31.953Z,8.50
2018-05-16T04:09:03.171Z,9.02
2018-05-16T04:09:34.381Z,9.40
2018-05-16T04:10:05.611Z,10.27
2018-05-16T04:10:36.827Z,10.73
2018-05-16T04:11:08.076Z,11.23
2018-05-16T04:11:39.321Z,11.57
2018-05-16T04:12:10.524Z,10.75
2018-05-16T04:12:41.750Z,11.05
2018-05-16T04:13:12.961Z,10.85
2018-05-16T04:13:44.189Z,11.00
2018-05-16T04:14:15.401Z,11.05
2018-05-16T04:14:46.631Z,11.25
2018-05-16T04:15:17.842Z,10.75
2018-05-16T04:15:49.093Z,11.63
2018-05-16T04:16:20.357Z,11.77
2018-05-16T04:16:51.560Z,10.68
2018-05-16T04:17:22.768Z,11.38
2018-05-16T04:17:54.025Z,10.73
2018-05-16T04:18:25.270Z,10.73
2018-05-16T04:18:56.490Z,10.68
2018-05-16T04:19:27.697Z,10.88
2018-05-16T04:19:58.897Z,11.12
2018-05-16T04:20:30.132Z,11.25
2018-05-16T04:21:01.393Z,11.07
2018-05-16T04:21:32.605Z,11.75
2018-05-16T04:22:03.859Z,11.32
2018-05-16T04:22:35.078Z,11.45
2018-05-16T04:23:06.301Z,12.02
2018-05-16T04:23:37.514Z,11.75
2018-05-16T04:24:08.738Z,12.63
2018-05-16T04:24:39.953Z,12.05
2018-05-16T04:25:11.177Z,11.02
2018-05-16T04:25:42.381Z,12.60
2018-05-16T04:26:13.649Z,12.60
2018-05-16T04:26:44.870Z,11.90
2018-05-16T04:27:16.132Z,12.15
2018-05-16T04:27:47.346Z,11.23
2018-05-16T04:28:18.563Z,12.02
2018-05-16T04:28:49.823Z,11.82
2018-05-16T04:29:21.041Z,11.57
2018-05-16T04:29:52.267Z,11.12
2018-05-16T04:30:23.473Z,12.27
2018-05-16T04:30:54.689Z,11.68
2018-05-16T04:31:25.893Z,11.77
2018-05-16T04:31:57.100Z,12.07
2018-05-16T04:32:28.353Z,11.68
2018-05-16T04:32:59.571Z,11.27
2018-05-16T04:33:30.782Z,11.43
2018-05-16T04:34:02.009Z,10.95
2018-05-16T04:34:33.223Z,11.80
2018-05-16T04:35:04.474Z,11.55
2018-05-16T04:35:35.752Z,11.07
2018-05-16T04:36:06.929Z,11.50
2018-05-16T04:36:38.185Z,11.73
2018-05-16T04:37:09.396Z,10.80
2018-05-16T04:37:40.610Z,11.90
2018-05-16T04:38:11.845Z,10.50
2018-05-16T04:38:43.068Z,10.52
2018-05-16T04:39:14.289Z,9.40
2018-05-16T04:39:45.512Z,10.45
2018-05-16T04:40:16.760Z,10.43
2018-05-16T04:40:47.977Z,10.98
2018-05-16T04:41:19.202Z,9.95
2018-05-16T04:41:50.582Z,10.13
2018-05-16T04:42:21.725Z,10.18
2018-05-16T04:42:52.948Z,11.35
2018-05-16T04:43:24.158Z,10.45
2018-05-16T04:43:55.377Z,10.90
2018-05-16T04:44:26.621Z,10.57
2018-05-16T04:44:57.837Z,10.20
2018-05-16T04:45:29.096Z,10.23
2018-05-16T04:46:00.313Z,9.97
2018-05-16T04:46:31.540Z,9.57
2018-05-16T04:47:02.758Z,10.20
2018-05-16T04:47:33.988Z,10.40
2018-05-16T04:48:05.201Z,10.63
2018-05-16T04:48:36.418Z,10.70
2018-05-16T04:49:07.635Z,10.07
2018-05-16T04:49:38.846Z,9.93
2018-05-16T04:50:10.057Z,10.03
2018-05-16T04:50:41.318Z,10.77
2018-05-16T04:51:12.533Z,10.27
2018-05-16T04:51:43.756Z,10.37
2018-05-16T04:52:15.009Z,9.93
2018-05-16T04:52:46.262Z,10.90
2018-05-16T04:53:17.494Z,9.70
2018-05-16T04:53:48.720Z,9.97
2018-05-16T04:54:19.935Z,10.47
2018-05-16T04:54:51.147Z,9.87
2018-05-16T04:55:22.356Z,10.20
2018-05-16T04:55:53.566Z,10.17
2018-05-16T04:56:24.805Z,9.40
2018-05-16T04:56:56.018Z,9.07
2018-05-16T04:57:27.261Z,9.00
2018-05-16T04:57:58.490Z,9.20
2018-05-16T04:58:29.728Z,8.43
2018-05-16T04:59:00.973Z,8.40
2018-05-16T04:59:32.206Z,9.10
2018-05-16T05:00:03.417Z,8.30
2018-05-16T05:00:34.661Z,8.87
2018-05-16T05:01:05.873Z,8.27
2018-05-16T05:01:37.174Z,8.57
2018-05-16T05:02:08.392Z,7.93
2018-05-16T05:02:39.602Z,8.43
2018-05-16T05:03:10.813Z,9.10
2018-05-16T05:03:42.023Z,8.03
2018-05-16T05:04:13.278Z,8.67
2018-05-16T05:04:44.493Z,8.70
2018-05-16T05:05:15.718Z,8.07
2018-05-16T05:05:46.949Z,7.90
2018-05-16T05:06:18.190Z,7.73
2018-05-16T05:06:49.492Z,7.93
2018-05-16T05:07:20.711Z,8.90
2018-05-16T05:07:51.922Z,7.90
2018-05-16T05:08:23.137Z,8.43
2018-05-16T05:08:54.445Z,8.27
2018-05-16T05:09:25.617Z,8.27
2018-05-16T05:09:56.834Z,7.50
2018-05-16T05:10:28.042Z,7.57
2018-05-16T05:10:59.262Z,7.40
2018-05-16T05:11:30.521Z,7.63
2018-05-16T05:12:01.729Z,7.40
2018-05-16T05:12:32.940Z,8.07
2018-05-16T05:13:04.188Z,7.60
2018-05-16T05:13:35.404Z,7.83
2018-05-16T05:14:06.714Z,8.03
2018-05-16T05:14:37.945Z,7.83
2018-05-16T05:15:09.144Z,7.53
2018-05-16T05:15:40.349Z,8.17
2018-05-16T05:16:11.577Z,8.20
2018-05-16T05:16:42.795Z,7.73
2018-05-16T05:17:14.060Z,7.73
2018-05-16T05:17:45.317Z,8.70
2018-05-16T05:18:16.705Z,7.77
2018-05-16T05:18:47.850Z,8.10
2018-05-16T05:19:19.041Z,8.27
2018-05-16T05:19:50.252Z,7.83
2018-05-16T05:20:21.477Z,7.20
2018-05-16T05:20:52.697Z,7.70
2018-05-16T05:21:23.960Z,8.17
2018-05-16T05:21:55.187Z,7.43
2018-05-16T05:22:26.389Z,8.10
2018-05-16T05:22:57.601Z,8.10
2018-05-16T05:23:28.814Z,7.80
2018-05-16T05:24:00.064Z,7.93
2018-05-16T05:24:31.281Z,8.10
2018-05-16T05:25:02.503Z,7.83
2018-05-16T05:25:33.725Z,8.00
2018-05-16T05:26:04.995Z,7.90
2018-05-16T05:26:36.249Z,7.63
2018-05-16T05:27:07.431Z,7.73
2018-05-16T05:27:38.650Z,7.90
2018-05-16T05:28:09.870Z,8.17
2018-05-16T05:28:41.126Z,8.27
2018-05-16T05:29:13.489Z,8.00
2018-05-16T05:29:44.694Z,7.70
2018-05-16T05:30:15.931Z,7.47
2018-05-16T05:30:47.163Z,7.57
2018-05-16T05:31:18.372Z,7.30
2018-05-16T05:31:49.577Z,7.67
2018-05-16T05:32:20.795Z,7.43
2018-05-16T05:32:52.008Z,7.90
2018-05-16T05:33:23.231Z,6.97
2018-05-16T05:33:54.472Z,7.37
2018-05-16T05:34:25.735Z,7.20
2018-05-16T05:34:56.952Z,7.10
2018-05-16T05:35:28.143Z,7.67
2018-05-16T05:35:59.345Z,8.10
2018-05-16T05:36:30.634Z,7.20
2018-05-16T05:37:02.625Z,7.37
2018-05-16T05:37:33.837Z,7.33
2018-05-16T05:38:05.041Z,6.73
2018-05-16T05:38:36.253Z,6.37
2018-05-16T05:39:07.512Z,6.90
2018-05-16T05:39:38.702Z,6.70
2018-05-16T05:40:09.918Z,6.57
2018-05-16T05:40:41.134Z,6.10
2018-05-16T05:41:12.348Z,6.70
2018-05-16T05:41:43.619Z,6.43
2018-05-16T05:42:14.825Z,6.37
2018-05-16T05:42:46.037Z,6.13
2018-05-16T05:43:17.272Z,5.73
2018-05-16T05:43:48.493Z,5.97
2018-05-16T05:44:19.718Z,6.57
2018-05-16T05:44:50.938Z,6.47
2018-05-16T05:45:22.131Z,6.27
2018-05-16T05:45:53.341Z,6.03
2018-05-16T05:46:24.565Z,6.13
2018-05-16T05:46:55.817Z,6.17
2018-05-16T05:47:27.034Z,5.67
2018-05-16T05:47:58.265Z,6.27
2018-05-16T05:48:29.483Z,6.00
2018-05-16T05:49:01.822Z,6.13
2018-05-16T05:49:33.032Z,5.90
2018-05-16T05:50:04.293Z,5.83
2018-05-16T05:50:35.506Z,6.03
2018-05-16T05:51:06.713Z,5.93
2018-05-16T05:51:37.920Z,5.57
2018-05-16T05:52:09.245Z,6.00
2018-05-16T05:52:40.425Z,5.80
2018-05-16T05:53:11.630Z,6.60
2018-05-16T05:53:42.846Z,6.30
2018-05-16T05:54:14.148Z,6.40
2018-05-16T05:54:46.575Z,5.30
2018-05-16T05:55:17.829Z,5.90
2018-05-16T05:55:49.094Z,6.30
2018-05-16T05:56:20.313Z,6.20
2018-05-16T05:56:51.526Z,5.40
2018-05-16T05:57:22.714Z,5.40
2018-05-16T05:57:53.912Z,5.80
2018-05-16T05:58:25.123Z,5.23
2018-05-16T05:58:56.349Z,5.40
2018-05-16T05:59:27.579Z,5.40
2018-05-16T05:59:58.847Z,5.57
2018-05-16T06:00:30.085Z,5.13
2018-05-16T06:01:01.378Z,5.53
2018-05-16T06:01:32.618Z,5.57
2018-05-16T06:02:03.922Z,5.67
2018-05-16T06:02:35.171Z,5.80
2018-05-16T06:03:06.446Z,5.73
2018-05-16T06:03:37.725Z,5.20
2018-05-16T06:04:08.949Z,6.67
2018-05-16T06:04:40.152Z,5.80
2018-05-16T06:05:11.383Z,6.53
2018-05-16T06:05:42.616Z,5.83
2018-05-16T06:06:13.881Z,6.43
2018-05-16T06:06:45.159Z,6.40
2018-05-16T06:07:16.417Z,7.80
2018-05-16T06:07:47.675Z,6.07
2018-05-16T06:08:18.945Z,5.43
2018-05-16T06:08:50.254Z,5.23
2018-05-16T06:09:21.546Z,5.67
2018-05-16T06:09:52.811Z,5.50
2018-05-16T06:10:24.108Z,5.43
2018-05-16T06:10:55.364Z,5.30
2018-05-16T06:11:26.638Z,5.40
2018-05-16T06:11:57.866Z,5.63
2018-05-16T06:12:29.117Z,4.87
2018-05-16T06:13:00.314Z,5.23
2018-05-16T06:13:31.511Z,5.93
2018-05-16T06:14:02.738Z,5.40
2018-05-16T06:14:33.988Z,6.27
2018-05-16T06:15:05.315Z,5.57
2018-05-16T06:15:36.559Z,5.07
2018-05-16T06:16:07.888Z,5.43
2018-05-16T06:16:39.181Z,5.80
2018-05-16T06:17:10.474Z,5.70
2018-05-16T06:17:41.783Z,4.83
2018-05-16T06:18:13.102Z,5.33
2018-05-16T06:18:44.386Z,5.03
2018-05-16T06:19:15.686Z,5.27
2018-05-16T06:19:46.978Z,5.13
2018-05-16T06:20:18.176Z,5.23
2018-05-16T06:20:49.382Z,5.67
2018-05-16T06:21:20.594Z,5.67
2018-05-16T06:21:51.832Z,5.37
2018-05-16T06:22:23.082Z,5.03
2018-05-16T06:22:54.395Z,5.50
2018-05-16T06:23:25.626Z,5.40
2018-05-16T06:23:56.864Z,5.33
2018-05-16T06:24:28.113Z,5.53
2018-05-16T06:24:59.325Z,5.57
2018-05-16T06:25:30.544Z,6.03
2018-05-16T06:26:01.760Z,5.40
2018-05-16T06:26:32.993Z,5.87
2018-05-16T06:27:04.382Z,5.87
2018-05-16T06:27:35.671Z,5.30
2018-05-16T06:28:06.886Z,6.00
2018-05-16T06:28:38.122Z,5.80
2018-05-16T06:29:09.394Z,5.90
2018-05-16T06:29:40.604Z,5.80
2018-05-16T06:30:11.819Z,5.70
2018-05-16T06:30:43.000Z,6.40
2018-05-16T06:31:14.161Z,5.27
2018-05-16T06:31:45.318Z,5.27
2018-05-16T06:32:16.456Z,5.67
2018-05-16T06:32:47.733Z,5.57
2018-05-16T06:33:18.822Z,5.93
2018-05-16T06:33:50.067Z,9.17
2018-05-16T06:34:21.258Z,5.97
2018-05-16T06:34:52.432Z,6.37
2018-05-16T06:35:23.580Z,5.80
2018-05-16T06:35:54.783Z,6.10
2018-05-16T06:36:25.981Z,5.57
2018-05-16T06:36:57.158Z,5.40
2018-05-16T06:37:28.300Z,5.83
2018-05-16T06:37:59.457Z,6.00
2018-05-16T06:38:30.622Z,5.60
2018-05-16T06:39:01.821Z,5.70
2018-05-16T06:39:33.032Z,5.50
2018-05-16T06:40:04.156Z,5.33
2018-05-16T06:40:35.313Z,5.63
2018-05-16T06:41:06.440Z,5.83
2018-05-16T06:41:37.597Z,5.50
2018-05-16T06:42:08.757Z,5.47
2018-05-16T06:42:39.931Z,5.57
2018-05-16T06:43:11.097Z,5.90
2018-05-16T06:43:42.289Z,6.37
2018-05-16T06:44:13.428Z,5.63
2018-05-16T06:44:44.608Z,6.57
2018-05-16T06:45:15.771Z,6.10
2018-05-16T06:45:46.984Z,6.50
2018-05-16T06:46:18.120Z,5.90
2018-05-16T06:46:49.281Z,5.87
2018-05-16T06:47:20.436Z,6.10
2018-05-16T06:47:51.591Z,6.20
2018-05-16T06:48:22.768Z,6.40
2018-05-16T06:48:53.954Z,5.43
2018-05-16T06:49:25.102Z,5.83
2018-05-16T06:49:56.271Z,6.10
2018-05-16T06:50:27.525Z,6.83
2018-05-16T06:50:58.707Z,5.90
2018-05-16T06:51:29.851Z,6.43
2018-05-16T06:52:01.055Z,6.23
2018-05-16T06:52:32.196Z,6.60
2018-05-16T06:53:03.397Z,6.47
2018-05-16T06:53:34.567Z,5.70